sensor_id;sensor_type;location;lat;lon;timestamp;temperature;humidity
44170;DHT22;29836;52.286;9.576;2024-02-21T00:01:35;7.70;99.90
44170;DHT22;29836;52.286;9.576;2024-02-21T00:04:02;7.70;99.90
44170;DHT22;29836;52.286;9.576;2024-02-21T00:06:27;7.80;99.90
44170;DHT22;29836;52.286;9.576;2024-02-21T00:08:53;7.80;99.90
44170;DHT22;29836;52.286;9.576;2024-02-21T00:11:18;7.80;99.90
44170;DHT22;29836;52.286;9.576;2024-02-21T00:13:44;7.80;99.90
44170;DHT22;29836;52.286;9.576;2024-02-21T00:16:09;7.80;99.90
44170;DHT22;29836;52.286;9.576;2024-02-21T00:18:36;7.80;99.90
44170;DHT22;29836;52.286;9.576;2024-02-21T00:21:02;7.80;99.90
44170;DHT22;29836;52.286;9.576;2024-02-21T00:23:28;7.90;99.90
44170;DHT22;29836;52.286;9.576;2024-02-21T00:25:54;7.80;99.90
44170;DHT22;29836;52.286;9.576;2024-02-21T00:28:19;7.80;99.90
44170;DHT22;29836;52.286;9.576;2024-02-21T00:30:45;7.90;99.90
44170;DHT22;29836;52.286;9.576;2024-02-21T00:33:13;7.80;99.90
44170;DHT22;29836;52.286;9.576;2024-02-21T00:35:39;7.80;99.90
44170;DHT22;29836;52.286;9.576;2024-02-21T00:38:04;7.90;99.90
44170;DHT22;29836;52.286;9.576;2024-02-21T00:40:30;7.90;99.90
44170;DHT22;29836;52.286;9.576;2024-02-21T00:42:55;7.90;99.90
44170;DHT22;29836;52.286;9.576;2024-02-21T00:45:21;7.90;99.90
44170;DHT22;29836;52.286;9.576;2024-02-21T00:47:46;7.90;99.90
44170;DHT22;29836;52.286;9.576;2024-02-21T00:50:12;7.90;99.90
44170;DHT22;29836;52.286;9.576;2024-02-21T00:52:37;8.00;99.90
44170;DHT22;29836;52.286;9.576;2024-02-21T00:55:04;7.90;99.90
44170;DHT22;29836;52.286;9.576;2024-02-21T00:57:30;8.00;99.90
44170;DHT22;29836;52.286;9.576;2024-02-21T00:59:55;8.00;99.90
44170;DHT22;29836;52.286;9.576;2024-02-21T01:02:21;8.00;99.90
44170;DHT22;29836;52.286;9.576;2024-02-21T01:04:46;8.00;99.90
44170;DHT22;29836;52.286;9.576;2024-02-21T01:07:12;7.90;99.90
44170;DHT22;29836;52.286;9.576;2024-02-21T01:09:37;8.00;99.90
44170;DHT22;29836;52.286;9.576;2024-02-21T01:12:03;8.00;99.90
44170;DHT22;29836;52.286;9.576;2024-02-21T01:14:29;8.00;99.90
44170;DHT22;29836;52.286;9.576;2024-02-21T01:16:54;8.00;99.90
44170;DHT22;29836;52.286;9.576;2024-02-21T01:19:20;8.00;99.90
44170;DHT22;29836;52.286;9.576;2024-02-21T01:21:45;8.00;99.90
44170;DHT22;29836;52.286;9.576;2024-02-21T01:24:11;8.00;99.90
44170;DHT22;29836;52.286;9.576;2024-02-21T01:26:36;8.10;99.90
44170;DHT22;29836;52.286;9.576;2024-02-21T01:29:02;8.00;99.90
44170;DHT22;29836;52.286;9.576;2024-02-21T01:31:27;8.00;99.90
44170;DHT22;29836;52.286;9.576;2024-02-21T01:33:53;8.00;99.90
44170;DHT22;29836;52.286;9.576;2024-02-21T01:36:18;8.00;99.90
44170;DHT22;29836;52.286;9.576;2024-02-21T01:38:44;8.10;99.90
44170;DHT22;29836;52.286;9.576;2024-02-21T01:41:09;8.10;99.90
44170;DHT22;29836;52.286;9.576;2024-02-21T01:43:35;8.10;99.90
44170;DHT22;29836;52.286;9.576;2024-02-21T01:46:01;8.10;99.90
44170;DHT22;29836;52.286;9.576;2024-02-21T01:48:27;8.10;99.90
44170;DHT22;29836;52.286;9.576;2024-02-21T01:50:54;8.10;99.90
44170;DHT22;29836;52.286;9.576;2024-02-21T01:53:25;8.10;99.90
44170;DHT22;29836;52.286;9.576;2024-02-21T01:55:53;8.10;99.90
44170;DHT22;29836;52.286;9.576;2024-02-21T01:58:18;8.10;99.90
44170;DHT22;29836;52.286;9.576;2024-02-21T02:00:46;8.00;99.90
44170;DHT22;29836;52.286;9.576;2024-02-21T02:03:13;8.00;99.90
44170;DHT22;29836;52.286;9.576;2024-02-21T02:05:46;8.00;99.90
44170;DHT22;29836;52.286;9.576;2024-02-21T02:08:17;8.00;99.90
44170;DHT22;29836;52.286;9.576;2024-02-21T02:10:44;8.10;99.90
44170;DHT22;29836;52.286;9.576;2024-02-21T02:13:10;8.10;99.90
44170;DHT22;29836;52.286;9.576;2024-02-21T02:15:42;8.10;99.90
44170;DHT22;29836;52.286;9.576;2024-02-21T02:18:08;8.10;99.90
44170;DHT22;29836;52.286;9.576;2024-02-21T02:20:34;8.10;99.90
44170;DHT22;29836;52.286;9.576;2024-02-21T02:22:59;8.00;99.90
44170;DHT22;29836;52.286;9.576;2024-02-21T02:25:26;8.10;99.90
44170;DHT22;29836;52.286;9.576;2024-02-21T02:27:53;8.00;99.90
44170;DHT22;29836;52.286;9.576;2024-02-21T02:30:19;8.10;99.90
44170;DHT22;29836;52.286;9.576;2024-02-21T02:32:45;8.10;99.90
44170;DHT22;29836;52.286;9.576;2024-02-21T02:35:11;8.10;99.90
44170;DHT22;29836;52.286;9.576;2024-02-21T02:37:37;8.10;99.90
44170;DHT22;29836;52.286;9.576;2024-02-21T02:40:05;8.20;99.90
44170;DHT22;29836;52.286;9.576;2024-02-21T02:42:31;8.20;99.90
44170;DHT22;29836;52.286;9.576;2024-02-21T02:44:56;8.20;99.90
44170;DHT22;29836;52.286;9.576;2024-02-21T02:47:22;8.20;99.90
44170;DHT22;29836;52.286;9.576;2024-02-21T02:49:48;8.10;99.90
44170;DHT22;29836;52.286;9.576;2024-02-21T02:52:16;8.10;99.90
44170;DHT22;29836;52.286;9.576;2024-02-21T02:54:42;8.10;99.90
44170;DHT22;29836;52.286;9.576;2024-02-21T02:57:07;8.10;99.90
44170;DHT22;29836;52.286;9.576;2024-02-21T02:59:33;8.10;99.90
44170;DHT22;29836;52.286;9.576;2024-02-21T03:01:59;8.10;99.90
44170;DHT22;29836;52.286;9.576;2024-02-21T03:04:24;8.20;99.90
44170;DHT22;29836;52.286;9.576;2024-02-21T03:06:50;8.20;99.90
44170;DHT22;29836;52.286;9.576;2024-02-21T03:09:16;8.20;99.90
44170;DHT22;29836;52.286;9.576;2024-02-21T03:11:42;8.10;99.90
44170;DHT22;29836;52.286;9.576;2024-02-21T03:14:10;8.10;99.90
44170;DHT22;29836;52.286;9.576;2024-02-21T03:16:36;8.10;99.90
44170;DHT22;29836;52.286;9.576;2024-02-21T03:19:01;8.00;99.90
44170;DHT22;29836;52.286;9.576;2024-02-21T03:21:27;7.90;99.90
44170;DHT22;29836;52.286;9.576;2024-02-21T03:23:52;7.90;99.90
44170;DHT22;29836;52.286;9.576;2024-02-21T03:26:17;7.80;99.90
44170;DHT22;29836;52.286;9.576;2024-02-21T03:28:44;7.90;99.90
44170;DHT22;29836;52.286;9.576;2024-02-21T03:31:11;7.90;99.90
44170;DHT22;29836;52.286;9.576;2024-02-21T03:33:39;7.90;99.90
44170;DHT22;29836;52.286;9.576;2024-02-21T03:36:04;7.80;99.90
44170;DHT22;29836;52.286;9.576;2024-02-21T03:38:30;7.80;99.90
44170;DHT22;29836;52.286;9.576;2024-02-21T03:40:55;7.80;99.90
44170;DHT22;29836;52.286;9.576;2024-02-21T03:43:21;7.80;99.90
44170;DHT22;29836;52.286;9.576;2024-02-21T03:45:46;7.70;99.90
44170;DHT22;29836;52.286;9.576;2024-02-21T03:48:21;7.70;99.90
44170;DHT22;29836;52.286;9.576;2024-02-21T03:50:46;7.60;99.90
44170;DHT22;29836;52.286;9.576;2024-02-21T03:53:12;7.50;99.90
44170;DHT22;29836;52.286;9.576;2024-02-21T03:55:37;7.50;99.90
44170;DHT22;29836;52.286;9.576;2024-02-21T03:58:03;7.50;99.90
44170;DHT22;29836;52.286;9.576;2024-02-21T04:00:29;7.40;99.90
44170;DHT22;29836;52.286;9.576;2024-02-21T04:02:54;7.40;99.90
44170;DHT22;29836;52.286;9.576;2024-02-21T04:05:21;7.40;99.90
44170;DHT22;29836;52.286;9.576;2024-02-21T04:07:46;7.50;99.90
44170;DHT22;29836;52.286;9.576;2024-02-21T04:10:12;7.50;99.90
44170;DHT22;29836;52.286;9.576;2024-02-21T04:12:38;7.50;99.90
44170;DHT22;29836;52.286;9.576;2024-02-21T04:15:04;7.60;99.90
44170;DHT22;29836;52.286;9.576;2024-02-21T04:17:29;7.60;99.90
44170;DHT22;29836;52.286;9.576;2024-02-21T04:20:03;7.80;99.90
44170;DHT22;29836;52.286;9.576;2024-02-21T04:22:34;7.80;99.90
44170;DHT22;29836;52.286;9.576;2024-02-21T04:25:00;7.80;99.90
44170;DHT22;29836;52.286;9.576;2024-02-21T04:27:26;7.90;99.90
44170;DHT22;29836;52.286;9.576;2024-02-21T04:29:52;7.90;99.90
44170;DHT22;29836;52.286;9.576;2024-02-21T04:32:18;7.90;99.90
44170;DHT22;29836;52.286;9.576;2024-02-21T04:34:43;8.00;99.90
44170;DHT22;29836;52.286;9.576;2024-02-21T04:37:09;8.00;99.90
44170;DHT22;29836;52.286;9.576;2024-02-21T04:39:34;8.00;99.90
44170;DHT22;29836;52.286;9.576;2024-02-21T04:42:00;8.00;99.90
44170;DHT22;29836;52.286;9.576;2024-02-21T04:44:25;8.00;99.90
44170;DHT22;29836;52.286;9.576;2024-02-21T04:46:51;8.10;99.90
44170;DHT22;29836;52.286;9.576;2024-02-21T04:49:16;8.10;99.90
44170;DHT22;29836;52.286;9.576;2024-02-21T04:51:42;8.10;99.90
44170;DHT22;29836;52.286;9.576;2024-02-21T04:54:07;8.10;99.90
44170;DHT22;29836;52.286;9.576;2024-02-21T04:56:33;8.10;99.90
44170;DHT22;29836;52.286;9.576;2024-02-21T04:58:59;8.10;99.90
44170;DHT22;29836;52.286;9.576;2024-02-21T05:01:24;8.10;99.90
44170;DHT22;29836;52.286;9.576;2024-02-21T05:03:50;8.10;99.90
44170;DHT22;29836;52.286;9.576;2024-02-21T05:06:16;8.10;99.90
44170;DHT22;29836;52.286;9.576;2024-02-21T05:08:42;8.10;99.90
44170;DHT22;29836;52.286;9.576;2024-02-21T05:11:07;8.00;99.90
44170;DHT22;29836;52.286;9.576;2024-02-21T05:13:33;8.00;99.90
44170;DHT22;29836;52.286;9.576;2024-02-21T05:15:58;8.00;99.90
44170;DHT22;29836;52.286;9.576;2024-02-21T05:18:27;8.00;99.90
44170;DHT22;29836;52.286;9.576;2024-02-21T05:20:53;7.90;99.90
44170;DHT22;29836;52.286;9.576;2024-02-21T05:23:19;7.90;99.90
44170;DHT22;29836;52.286;9.576;2024-02-21T05:25:44;7.80;99.90
44170;DHT22;29836;52.286;9.576;2024-02-21T05:28:10;7.70;99.90
44170;DHT22;29836;52.286;9.576;2024-02-21T05:30:35;7.70;99.90
44170;DHT22;29836;52.286;9.576;2024-02-21T05:33:07;7.60;99.90
44170;DHT22;29836;52.286;9.576;2024-02-21T05:35:33;7.60;99.90
44170;DHT22;29836;52.286;9.576;2024-02-21T05:37:59;7.60;99.90
44170;DHT22;29836;52.286;9.576;2024-02-21T05:40:25;7.60;99.90
44170;DHT22;29836;52.286;9.576;2024-02-21T05:42:51;7.60;99.90
44170;DHT22;29836;52.286;9.576;2024-02-21T05:45:17;7.60;99.90
44170;DHT22;29836;52.286;9.576;2024-02-21T05:47:43;7.60;99.90
44170;DHT22;29836;52.286;9.576;2024-02-21T05:50:09;7.70;99.90
44170;DHT22;29836;52.286;9.576;2024-02-21T05:52:35;7.70;99.90
44170;DHT22;29836;52.286;9.576;2024-02-21T05:55:01;7.70;99.90
44170;DHT22;29836;52.286;9.576;2024-02-21T05:57:26;7.70;99.90
44170;DHT22;29836;52.286;9.576;2024-02-21T05:59:52;7.70;99.90
44170;DHT22;29836;52.286;9.576;2024-02-21T06:02:17;7.70;99.90
44170;DHT22;29836;52.286;9.576;2024-02-21T06:04:43;7.70;99.90
44170;DHT22;29836;52.286;9.576;2024-02-21T06:07:09;7.70;99.90
44170;DHT22;29836;52.286;9.576;2024-02-21T06:09:35;7.80;99.90
44170;DHT22;29836;52.286;9.576;2024-02-21T06:12:00;7.80;99.90
44170;DHT22;29836;52.286;9.576;2024-02-21T06:14:26;7.80;99.90
44170;DHT22;29836;52.286;9.576;2024-02-21T06:16:51;7.80;99.90
44170;DHT22;29836;52.286;9.576;2024-02-21T06:19:17;7.80;99.90
44170;DHT22;29836;52.286;9.576;2024-02-21T06:21:42;7.80;99.90
44170;DHT22;29836;52.286;9.576;2024-02-21T06:24:08;7.70;99.90
44170;DHT22;29836;52.286;9.576;2024-02-21T06:26:33;7.70;99.90
44170;DHT22;29836;52.286;9.576;2024-02-21T06:28:59;7.70;99.90
44170;DHT22;29836;52.286;9.576;2024-02-21T06:31:25;7.70;99.90
44170;DHT22;29836;52.286;9.576;2024-02-21T06:33:51;7.70;99.90
44170;DHT22;29836;52.286;9.576;2024-02-21T06:36:16;7.60;99.90
44170;DHT22;29836;52.286;9.576;2024-02-21T06:38:42;7.60;99.90
44170;DHT22;29836;52.286;9.576;2024-02-21T06:41:17;7.60;99.90
44170;DHT22;29836;52.286;9.576;2024-02-21T06:43:45;7.50;99.90
44170;DHT22;29836;52.286;9.576;2024-02-21T06:46:11;7.50;99.90
44170;DHT22;29836;52.286;9.576;2024-02-21T06:48:37;7.50;99.90
44170;DHT22;29836;52.286;9.576;2024-02-21T06:51:03;7.50;99.90
44170;DHT22;29836;52.286;9.576;2024-02-21T06:53:29;7.50;99.90
44170;DHT22;29836;52.286;9.576;2024-02-21T06:55:54;7.50;99.90
44170;DHT22;29836;52.286;9.576;2024-02-21T06:58:20;7.50;99.90
44170;DHT22;29836;52.286;9.576;2024-02-21T07:00:45;7.60;99.90
44170;DHT22;29836;52.286;9.576;2024-02-21T07:03:11;7.60;99.90
44170;DHT22;29836;52.286;9.576;2024-02-21T07:05:36;7.60;99.90
44170;DHT22;29836;52.286;9.576;2024-02-21T07:08:02;7.70;99.90
44170;DHT22;29836;52.286;9.576;2024-02-21T07:10:28;7.70;99.90
44170;DHT22;29836;52.286;9.576;2024-02-21T07:12:55;7.70;99.90
44170;DHT22;29836;52.286;9.576;2024-02-21T07:15:20;7.80;99.90
44170;DHT22;29836;52.286;9.576;2024-02-21T07:17:46;7.80;99.90
44170;DHT22;29836;52.286;9.576;2024-02-21T07:20:11;7.80;99.90
44170;DHT22;29836;52.286;9.576;2024-02-21T07:22:37;7.80;99.90
44170;DHT22;29836;52.286;9.576;2024-02-21T07:25:03;7.80;99.90
44170;DHT22;29836;52.286;9.576;2024-02-21T07:27:29;7.80;99.90
44170;DHT22;29836;52.286;9.576;2024-02-21T07:29:56;7.90;99.90
44170;DHT22;29836;52.286;9.576;2024-02-21T07:32:22;7.90;99.90
44170;DHT22;29836;52.286;9.576;2024-02-21T07:34:48;8.00;99.90
44170;DHT22;29836;52.286;9.576;2024-02-21T07:37:13;8.00;99.90
44170;DHT22;29836;52.286;9.576;2024-02-21T07:39:39;8.10;99.90
44170;DHT22;29836;52.286;9.576;2024-02-21T07:42:05;8.10;99.90
44170;DHT22;29836;52.286;9.576;2024-02-21T07:44:31;8.10;99.90
44170;DHT22;29836;52.286;9.576;2024-02-21T07:46:57;8.20;99.90
44170;DHT22;29836;52.286;9.576;2024-02-21T07:49:23;8.20;99.90
44170;DHT22;29836;52.286;9.576;2024-02-21T07:51:49;8.30;99.90
44170;DHT22;29836;52.286;9.576;2024-02-21T07:54:14;8.40;99.90
44170;DHT22;29836;52.286;9.576;2024-02-21T07:56:40;8.50;99.90
44170;DHT22;29836;52.286;9.576;2024-02-21T07:59:05;8.50;99.90
44170;DHT22;29836;52.286;9.576;2024-02-21T08:01:31;8.50;99.90
44170;DHT22;29836;52.286;9.576;2024-02-21T08:03:56;8.50;99.90
44170;DHT22;29836;52.286;9.576;2024-02-21T08:06:22;8.50;99.90
44170;DHT22;29836;52.286;9.576;2024-02-21T08:08:47;8.50;99.90
44170;DHT22;29836;52.286;9.576;2024-02-21T08:11:13;8.50;99.90
44170;DHT22;29836;52.286;9.576;2024-02-21T08:13:39;8.60;99.90
44170;DHT22;29836;52.286;9.576;2024-02-21T08:16:04;8.60;99.90
44170;DHT22;29836;52.286;9.576;2024-02-21T08:18:30;8.70;99.90
44170;DHT22;29836;52.286;9.576;2024-02-21T08:20:56;8.70;99.90
44170;DHT22;29836;52.286;9.576;2024-02-21T08:23:23;8.60;99.90
44170;DHT22;29836;52.286;9.576;2024-02-21T08:25:49;8.70;99.90
44170;DHT22;29836;52.286;9.576;2024-02-21T08:28:15;8.70;99.90
44170;DHT22;29836;52.286;9.576;2024-02-21T08:30:40;8.70;99.90
44170;DHT22;29836;52.286;9.576;2024-02-21T08:33:09;8.70;99.90
44170;DHT22;29836;52.286;9.576;2024-02-21T08:35:35;8.70;99.90
44170;DHT22;29836;52.286;9.576;2024-02-21T08:38:00;8.80;99.90
44170;DHT22;29836;52.286;9.576;2024-02-21T08:40:26;8.90;99.90
44170;DHT22;29836;52.286;9.576;2024-02-21T08:42:51;9.00;99.90
44170;DHT22;29836;52.286;9.576;2024-02-21T08:45:19;9.00;99.90
44170;DHT22;29836;52.286;9.576;2024-02-21T08:47:44;9.10;99.90
44170;DHT22;29836;52.286;9.576;2024-02-21T08:50:11;9.30;99.90
44170;DHT22;29836;52.286;9.576;2024-02-21T08:52:37;9.50;99.90
44170;DHT22;29836;52.286;9.576;2024-02-21T08:55:03;9.80;99.90
44170;DHT22;29836;52.286;9.576;2024-02-21T08:57:29;9.90;99.90
44170;DHT22;29836;52.286;9.576;2024-02-21T08:59:54;10.00;99.90
44170;DHT22;29836;52.286;9.576;2024-02-21T09:02:20;10.00;99.90
44170;DHT22;29836;52.286;9.576;2024-02-21T09:04:45;10.10;99.90
44170;DHT22;29836;52.286;9.576;2024-02-21T09:07:11;10.20;99.90
44170;DHT22;29836;52.286;9.576;2024-02-21T09:09:37;10.40;99.90
44170;DHT22;29836;52.286;9.576;2024-02-21T09:12:05;10.50;99.90
44170;DHT22;29836;52.286;9.576;2024-02-21T09:14:32;10.70;99.90
44170;DHT22;29836;52.286;9.576;2024-02-21T09:16:57;10.80;99.90
44170;DHT22;29836;52.286;9.576;2024-02-21T09:19:23;11.00;99.90
44170;DHT22;29836;52.286;9.576;2024-02-21T09:21:48;11.00;99.90
44170;DHT22;29836;52.286;9.576;2024-02-21T09:24:14;11.10;99.90
44170;DHT22;29836;52.286;9.576;2024-02-21T09:26:40;11.20;99.90
44170;DHT22;29836;52.286;9.576;2024-02-21T09:29:05;11.40;99.90
44170;DHT22;29836;52.286;9.576;2024-02-21T09:31:31;11.70;99.90
44170;DHT22;29836;52.286;9.576;2024-02-21T09:33:56;12.20;99.90
44170;DHT22;29836;52.286;9.576;2024-02-21T09:36:22;12.80;99.90
44170;DHT22;29836;52.286;9.576;2024-02-21T09:38:48;13.00;99.90
44170;DHT22;29836;52.286;9.576;2024-02-21T09:41:18;12.90;99.90
44170;DHT22;29836;52.286;9.576;2024-02-21T09:43:44;13.00;99.90
44170;DHT22;29836;52.286;9.576;2024-02-21T09:46:16;12.70;99.90
44170;DHT22;29836;52.286;9.576;2024-02-21T09:49:06;12.60;99.90
44170;DHT22;29836;52.286;9.576;2024-02-21T09:51:36;12.40;99.90
44170;DHT22;29836;52.286;9.576;2024-02-21T09:54:04;12.30;99.90
44170;DHT22;29836;52.286;9.576;2024-02-21T09:56:30;12.10;99.90
44170;DHT22;29836;52.286;9.576;2024-02-21T09:58:56;12.00;99.90
44170;DHT22;29836;52.286;9.576;2024-02-21T10:01:22;12.00;99.90
44170;DHT22;29836;52.286;9.576;2024-02-21T10:03:48;12.20;99.90
44170;DHT22;29836;52.286;9.576;2024-02-21T10:06:13;12.20;99.90
44170;DHT22;29836;52.286;9.576;2024-02-21T10:08:39;12.30;99.90
44170;DHT22;29836;52.286;9.576;2024-02-21T10:11:05;12.10;99.90
44170;DHT22;29836;52.286;9.576;2024-02-21T10:13:30;12.00;99.90
44170;DHT22;29836;52.286;9.576;2024-02-21T10:16:03;12.00;99.90
44170;DHT22;29836;52.286;9.576;2024-02-21T10:18:29;12.00;99.90
44170;DHT22;29836;52.286;9.576;2024-02-21T10:21:02;12.50;99.90
44170;DHT22;29836;52.286;9.576;2024-02-21T10:23:28;12.90;99.90
44170;DHT22;29836;52.286;9.576;2024-02-21T10:25:53;12.80;99.90
44170;DHT22;29836;52.286;9.576;2024-02-21T10:28:19;12.50;99.90
44170;DHT22;29836;52.286;9.576;2024-02-21T10:30:51;12.40;99.90
44170;DHT22;29836;52.286;9.576;2024-02-21T10:33:17;12.50;99.90
44170;DHT22;29836;52.286;9.576;2024-02-21T10:35:46;12.50;99.90
44170;DHT22;29836;52.286;9.576;2024-02-21T10:38:12;12.60;99.90
44170;DHT22;29836;52.286;9.576;2024-02-21T10:40:38;12.50;99.90
44170;DHT22;29836;52.286;9.576;2024-02-21T10:43:05;12.60;99.90
44170;DHT22;29836;52.286;9.576;2024-02-21T10:45:37;12.60;99.90
44170;DHT22;29836;52.286;9.576;2024-02-21T10:48:11;12.50;99.90
44170;DHT22;29836;52.286;9.576;2024-02-21T10:53:54;12.80;99.90
44170;DHT22;29836;52.286;9.576;2024-02-21T10:56:34;12.80;99.90
44170;DHT22;29836;52.286;9.576;2024-02-21T10:59:03;13.10;99.80
44170;DHT22;29836;52.286;9.576;2024-02-21T11:01:29;12.90;99.90
44170;DHT22;29836;52.286;9.576;2024-02-21T11:03:59;13.00;99.90
44170;DHT22;29836;52.286;9.576;2024-02-21T11:06:26;12.70;99.90
44170;DHT22;29836;52.286;9.576;2024-02-21T11:09:03;12.40;99.90
44170;DHT22;29836;52.286;9.576;2024-02-21T11:11:43;12.20;99.90
44170;DHT22;29836;52.286;9.576;2024-02-21T11:14:19;12.30;99.90
44170;DHT22;29836;52.286;9.576;2024-02-21T11:16:45;12.20;99.90
44170;DHT22;29836;52.286;9.576;2024-02-21T11:19:22;12.20;99.90
44170;DHT22;29836;52.286;9.576;2024-02-21T11:21:48;12.10;99.90
44170;DHT22;29836;52.286;9.576;2024-02-21T11:24:14;11.90;99.90
44170;DHT22;29836;52.286;9.576;2024-02-21T11:26:50;11.90;99.90
44170;DHT22;29836;52.286;9.576;2024-02-21T11:29:23;11.80;99.90
44170;DHT22;29836;52.286;9.576;2024-02-21T11:31:49;11.70;99.90
44170;DHT22;29836;52.286;9.576;2024-02-21T11:34:18;11.80;99.90
44170;DHT22;29836;52.286;9.576;2024-02-21T11:36:51;11.90;99.90
44170;DHT22;29836;52.286;9.576;2024-02-21T11:39:26;12.10;99.90
44170;DHT22;29836;52.286;9.576;2024-02-21T11:42:06;12.00;99.90
44170;DHT22;29836;52.286;9.576;2024-02-21T11:44:33;12.00;99.90
44170;DHT22;29836;52.286;9.576;2024-02-21T11:46:59;12.10;99.90
44170;DHT22;29836;52.286;9.576;2024-02-21T11:49:25;12.10;99.50
44170;DHT22;29836;52.286;9.576;2024-02-21T11:52:02;12.00;99.60
44170;DHT22;29836;52.286;9.576;2024-02-21T11:54:30;12.10;99.90
44170;DHT22;29836;52.286;9.576;2024-02-21T11:56:56;12.20;99.90
44170;DHT22;29836;52.286;9.576;2024-02-21T11:59:21;12.10;99.30
44170;DHT22;29836;52.286;9.576;2024-02-21T12:01:48;12.10;99.80
44170;DHT22;29836;52.286;9.576;2024-02-21T12:04:15;12.20;99.70
44170;DHT22;29836;52.286;9.576;2024-02-21T12:06:43;12.30;99.60
44170;DHT22;29836;52.286;9.576;2024-02-21T12:09:09;12.30;99.30
44170;DHT22;29836;52.286;9.576;2024-02-21T12:11:35;12.10;99.10
44170;DHT22;29836;52.286;9.576;2024-02-21T12:14:04;12.10;98.70
44170;DHT22;29836;52.286;9.576;2024-02-21T12:16:33;12.00;99.00
44170;DHT22;29836;52.286;9.576;2024-02-21T12:19:00;12.00;98.90
44170;DHT22;29836;52.286;9.576;2024-02-21T12:21:27;12.00;99.30
44170;DHT22;29836;52.286;9.576;2024-02-21T12:23:55;12.10;98.90
44170;DHT22;29836;52.286;9.576;2024-02-21T12:26:21;12.00;99.30
44170;DHT22;29836;52.286;9.576;2024-02-21T12:28:47;12.10;99.10
44170;DHT22;29836;52.286;9.576;2024-02-21T12:31:13;12.00;99.20
44170;DHT22;29836;52.286;9.576;2024-02-21T12:33:39;12.10;99.40
44170;DHT22;29836;52.286;9.576;2024-02-21T12:36:05;12.30;99.50
44170;DHT22;29836;52.286;9.576;2024-02-21T12:38:30;12.20;99.40
44170;DHT22;29836;52.286;9.576;2024-02-21T12:40:56;12.30;99.10
44170;DHT22;29836;52.286;9.576;2024-02-21T12:43:23;12.40;98.90
44170;DHT22;29836;52.286;9.576;2024-02-21T12:45:49;12.40;99.30
44170;DHT22;29836;52.286;9.576;2024-02-21T12:48:14;12.20;99.60
44170;DHT22;29836;52.286;9.576;2024-02-21T12:50:42;12.20;99.30
44170;DHT22;29836;52.286;9.576;2024-02-21T12:53:13;12.20;99.90
44170;DHT22;29836;52.286;9.576;2024-02-21T12:55:38;12.20;99.40
44170;DHT22;29836;52.286;9.576;2024-02-21T12:58:04;12.20;99.70
44170;DHT22;29836;52.286;9.576;2024-02-21T13:00:32;12.20;99.80
44170;DHT22;29836;52.286;9.576;2024-02-21T13:02:57;12.10;99.90
44170;DHT22;29836;52.286;9.576;2024-02-21T13:05:23;12.00;99.00
44170;DHT22;29836;52.286;9.576;2024-02-21T13:07:49;11.80;98.90
44170;DHT22;29836;52.286;9.576;2024-02-21T13:10:14;11.90;99.30
44170;DHT22;29836;52.286;9.576;2024-02-21T13:12:40;12.00;99.40
44170;DHT22;29836;52.286;9.576;2024-02-21T13:15:06;11.90;99.00
44170;DHT22;29836;52.286;9.576;2024-02-21T13:17:32;11.80;99.10
44170;DHT22;29836;52.286;9.576;2024-02-21T13:19:58;11.80;99.60
44170;DHT22;29836;52.286;9.576;2024-02-21T13:22:24;12.00;99.20
44170;DHT22;29836;52.286;9.576;2024-02-21T13:24:51;12.10;99.40
44170;DHT22;29836;52.286;9.576;2024-02-21T13:27:17;12.10;99.40
44170;DHT22;29836;52.286;9.576;2024-02-21T13:29:43;12.20;99.80
44170;DHT22;29836;52.286;9.576;2024-02-21T13:32:08;12.30;99.30
44170;DHT22;29836;52.286;9.576;2024-02-21T13:34:34;12.20;99.70
44170;DHT22;29836;52.286;9.576;2024-02-21T13:36:59;12.00;98.50
44170;DHT22;29836;52.286;9.576;2024-02-21T13:39:25;11.80;99.30
44170;DHT22;29836;52.286;9.576;2024-02-21T13:41:51;11.60;99.50
44170;DHT22;29836;52.286;9.576;2024-02-21T13:44:16;11.60;99.80
44170;DHT22;29836;52.286;9.576;2024-02-21T13:46:42;11.70;99.70
44170;DHT22;29836;52.286;9.576;2024-02-21T13:49:07;11.60;99.10
44170;DHT22;29836;52.286;9.576;2024-02-21T13:51:34;11.50;99.90
44170;DHT22;29836;52.286;9.576;2024-02-21T13:54:02;11.50;99.90
44170;DHT22;29836;52.286;9.576;2024-02-21T13:56:28;11.60;99.90
44170;DHT22;29836;52.286;9.576;2024-02-21T13:58:53;11.30;99.90
44170;DHT22;29836;52.286;9.576;2024-02-21T14:01:19;11.10;99.80
44170;DHT22;29836;52.286;9.576;2024-02-21T14:03:44;11.10;99.90
44170;DHT22;29836;52.286;9.576;2024-02-21T14:06:10;11.10;99.90
44170;DHT22;29836;52.286;9.576;2024-02-21T14:08:35;10.90;99.90
44170;DHT22;29836;52.286;9.576;2024-02-21T14:11:02;11.00;99.90
44170;DHT22;29836;52.286;9.576;2024-02-21T14:13:28;11.10;99.90
44170;DHT22;29836;52.286;9.576;2024-02-21T14:15:53;11.20;99.90
44170;DHT22;29836;52.286;9.576;2024-02-21T14:18:19;11.10;99.90
44170;DHT22;29836;52.286;9.576;2024-02-21T14:20:44;11.00;99.90
44170;DHT22;29836;52.286;9.576;2024-02-21T14:23:12;10.90;99.90
44170;DHT22;29836;52.286;9.576;2024-02-21T14:25:38;10.80;99.90
44170;DHT22;29836;52.286;9.576;2024-02-21T14:28:05;10.70;99.90
44170;DHT22;29836;52.286;9.576;2024-02-21T14:30:31;10.70;99.90
44170;DHT22;29836;52.286;9.576;2024-02-21T14:32:56;10.70;99.90
44170;DHT22;29836;52.286;9.576;2024-02-21T14:35:22;10.60;99.90
44170;DHT22;29836;52.286;9.576;2024-02-21T14:37:47;10.50;99.90
44170;DHT22;29836;52.286;9.576;2024-02-21T14:40:16;10.40;99.90
44170;DHT22;29836;52.286;9.576;2024-02-21T14:42:41;10.40;99.90
44170;DHT22;29836;52.286;9.576;2024-02-21T14:45:07;10.40;99.90
44170;DHT22;29836;52.286;9.576;2024-02-21T14:47:33;10.40;99.90
44170;DHT22;29836;52.286;9.576;2024-02-21T14:49:59;10.30;99.90
44170;DHT22;29836;52.286;9.576;2024-02-21T14:52:24;10.30;99.90
44170;DHT22;29836;52.286;9.576;2024-02-21T14:54:50;10.30;99.90
44170;DHT22;29836;52.286;9.576;2024-02-21T14:57:20;10.30;99.90
44170;DHT22;29836;52.286;9.576;2024-02-21T14:59:46;10.30;99.90
44170;DHT22;29836;52.286;9.576;2024-02-21T15:02:14;10.30;99.90
44170;DHT22;29836;52.286;9.576;2024-02-21T15:04:39;10.40;99.90
44170;DHT22;29836;52.286;9.576;2024-02-21T15:07:05;10.40;99.90
44170;DHT22;29836;52.286;9.576;2024-02-21T15:09:30;10.20;99.90
44170;DHT22;29836;52.286;9.576;2024-02-21T15:11:56;10.10;99.90
44170;DHT22;29836;52.286;9.576;2024-02-21T15:14:21;10.10;99.90
44170;DHT22;29836;52.286;9.576;2024-02-21T15:16:47;10.20;99.90
44170;DHT22;29836;52.286;9.576;2024-02-21T15:19:12;10.10;99.90
44170;DHT22;29836;52.286;9.576;2024-02-21T15:21:38;9.90;99.90
44170;DHT22;29836;52.286;9.576;2024-02-21T15:24:03;9.90;99.90
44170;DHT22;29836;52.286;9.576;2024-02-21T15:26:29;9.90;99.90
44170;DHT22;29836;52.286;9.576;2024-02-21T15:28:55;9.80;99.90
44170;DHT22;29836;52.286;9.576;2024-02-21T15:31:24;9.80;99.90
44170;DHT22;29836;52.286;9.576;2024-02-21T15:33:51;9.70;99.90
44170;DHT22;29836;52.286;9.576;2024-02-21T15:36:16;9.60;99.90
44170;DHT22;29836;52.286;9.576;2024-02-21T15:38:42;9.60;99.90